Time;durP1;ratioP1;P1;durP2;ratioP2;P2;SDS_P1;SDS_P2;PMS_P1;PMS_P2;Temp;Humidity;BMP_temperature;BMP_pressure;BME280_temperature;BME280_humidity;BME280_pressure;Samples;Min_cycle;Max_cycle;Signal;HPM_P1;HPM_P2
2022/10/10 00:01:31;;;;;;;;;;;8.20;99.90;;;;;;5012933;28;20078;-89
2022/10/10 00:03:58;;;;;;;;;;;9.10;99.90;;;;;;5011306;28;19920;-90
2022/10/10 00:06:24;;;;;;;;;;;9.20;99.90;;;;;;5012826;28;20010;-89
2022/10/10 00:08:49;;;;;;;;;;;8.00;99.90;;;;;;5010726;28;19928;-89
2022/10/10 00:11:16;;;;;;;;;;;8.00;99.90;;;;;;4996601;28;19927;-89
2022/10/10 00:13:42;;;;;;;;;;;7.60;99.90;;;;;;5030144;28;19927;-89
2022/10/10 00:16:07;;;;;;;;;;;8.80;99.90;;;;;;5011828;28;20283;-90
2022/10/10 00:18:33;;;;;;;;;;;9.00;99.90;;;;;;5028043;28;20323;-89
2022/10/10 00:20:59;;;;;;;;;;;9.40;99.90;;;;;;4994896;28;19921;-89
2022/10/10 00:23:24;;;;;;;;;;;9.00;99.90;;;;;;4996416;28;20289;-89
2022/10/10 00:25:50;;;;;;;;;;;9.40;99.90;;;;;;5010504;28;19944;-89
2022/10/10 00:28:16;;;;;;;;;;;7.90;99.90;;;;;;5028661;28;19920;-90
2022/10/10 00:30:41;;;;;;;;;;;9.40;99.90;;;;;;5010639;28;19943;-90
2022/10/10 00:33:07;;;;;;;;;;;8.00;99.90;;;;;;5011825;28;19921;-91
2022/10/10 00:35:33;;;;;;;;;;;8.80;99.90;;;;;;5011402;28;19973;-89
2022/10/10 00:37:58;;;;;;;;;;;8.00;99.90;;;;;;5011772;28;20157;-89
2022/10/10 00:40:24;;;;;;;;;;;8.80;99.90;;;;;;5028281;28;19920;-89
2022/10/10 00:42:50;;;;;;;;;;;9.30;99.90;;;;;;5010501;28;19924;-89
2022/10/10 00:45:27;;;;;;;;;;;7.90;99.90;;;;;;4996366;28;19967;-89
2022/10/10 00:48:03;;;;;;;;;;;7.00;99.90;;;;;;5015105;28;19927;-90
2022/10/10 00:50:28;;;;;;;;;;;7.90;99.90;;;;;;5014682;28;19928;-89
2022/10/10 00:52:54;;;;;;;;;;;7.90;99.90;;;;;;5015383;28;19921;-90
2022/10/10 00:55:20;;;;;;;;;;;8.60;99.90;;;;;;5031873;28;19935;-90
2022/10/10 00:57:46;;;;;;;;;;;8.00;99.90;;;;;;5033045;28;19947;-90
2022/10/10 01:00:12;;;;;;;;;;;8.80;99.90;;;;;;5013972;28;20280;-89
2022/10/10 01:02:37;;;;;;;;;;;7.80;99.90;;;;;;5015945;28;19925;-90
2022/10/10 01:05:03;;;;;;;;;;;7.80;99.90;;;;;;5014903;28;19921;-91
2022/10/10 01:07:30;;;;;;;;;;;7.80;99.90;;;;;;5015651;28;19921;-89
2022/10/10 01:10:01;;;;;;;;;;;7.30;99.90;;;;;;5015329;28;19921;-90
2022/10/10 01:12:35;;;;;;;;;;;7.80;99.90;;;;;;5030986;28;19983;-90
2022/10/10 01:15:07;;;;;;;;;;;8.60;99.90;;;;;;5028749;28;19921;-90
2022/10/10 01:17:46;;;;;;;;;;;7.80;99.90;;;;;;5013738;28;19921;-89
2022/10/10 01:20:12;;;;;;;;;;;7.70;99.90;;;;;;5031860;28;19975;-90
2022/10/10 01:22:43;;;;;;;;;;;8.50;99.90;;;;;;5015384;28;20323;-89
2022/10/10 01:25:28;;;;;;;;;;;7.80;99.90;;;;;;5031332;28;19927;-89
2022/10/10 01:28:00;;;;;;;;;;;7.70;99.90;;;;;;5015644;28;19971;-90
2022/10/10 01:30:30;;;;;;;;;;;7.70;99.90;;;;;;5013847;28;19974;-90
2022/10/10 01:32:58;;;;;;;;;;;7.70;99.90;;;;;;5015536;28;19966;-89
2022/10/10 01:35:38;;;;;;;;;;;7.70;99.90;;;;;;5014505;28;19927;-90
2022/10/10 01:38:10;;;;;;;;;;;7.60;99.90;;;;;;5014963;28;20133;-90
2022/10/10 01:40:46;;;;;;;;;;;7.60;99.90;;;;;;5031747;28;19920;-90
2022/10/10 01:43:12;;;;;;;;;;;7.60;99.90;;;;;;5013621;28;19921;-90
2022/10/10 01:45:42;;;;;;;;;;;8.10;99.90;;;;;;5015767;28;19920;-89
2022/10/10 01:48:08;;;;;;;;;;;7.50;99.90;;;;;;5014381;28;19921;-90
2022/10/10 01:50:49;;;;;;;;;;;8.90;99.90;;;;;;5013850;28;19982;-89
2022/10/10 01:53:24;;;;;;;;;;;7.50;99.90;;;;;;5031621;28;19967;-91
2022/10/10 01:55:57;;;;;;;;;;;7.40;99.90;;;;;;5008885;28;19925;-90
2022/10/10 01:58:22;;;;;;;;;;;7.40;99.90;;;;;;5010698;28;19921;-89
2022/10/10 02:00:53;;;;;;;;;;;7.40;99.90;;;;;;5014028;28;19921;-89
2022/10/10 02:03:23;;;;;;;;;;;7.30;99.90;;;;;;5030256;28;19920;-90
2022/10/10 02:05:51;;;;;;;;;;;7.90;99.90;;;;;;5031245;28;19940;-89
2022/10/10 02:08:23;;;;;;;;;;;7.30;99.90;;;;;;5014048;28;20323;-89
2022/10/10 02:10:54;;;;;;;;;;;7.30;99.90;;;;;;5015378;28;19921;-90
2022/10/10 02:13:20;;;;;;;;;;;7.50;99.90;;;;;;5013336;28;19932;-89
2022/10/10 02:15:51;;;;;;;;;;;8.00;99.90;;;;;;5030941;28;19920;-90
2022/10/10 02:18:19;;;;;;;;;;;7.30;99.90;;;;;;5013809;28;19921;-90
2022/10/10 02:20:44;;;;;;;;;;;7.30;99.90;;;;;;5013998;28;20004;-90
2022/10/10 02:23:13;;;;;;;;;;;8.60;99.90;;;;;;5014431;28;20370;-89
2022/10/10 02:25:40;;;;;;;;;;;8.50;99.90;;;;;;5029177;28;20483;-89
2022/10/10 02:28:11;;;;;;;;;;;8.10;99.90;;;;;;5015004;28;20365;-90
2022/10/10 02:30:39;;;;;;;;;;;7.30;99.90;;;;;;5029526;28;19924;-89
2022/10/10 02:33:05;;;;;;;;;;;8.60;99.90;;;;;;5014208;28;19921;-90
2022/10/10 02:35:33;;;;;;;;;;;7.30;99.90;;;;;;5013895;28;19963;-90
2022/10/10 02:38:00;;;;;;;;;;;7.30;99.90;;;;;;5013117;28;20085;-90
2022/10/10 02:40:28;;;;;;;;;;;7.30;99.90;;;;;;5030826;28;20410;-89
2022/10/10 02:42:54;;;;;;;;;;;7.40;99.90;;;;;;5028805;28;19927;-90
2022/10/10 02:45:20;;;;;;;;;;;8.00;99.90;;;;;;5031133;28;19947;-89
2022/10/10 02:47:46;;;;;;;;;;;8.60;99.90;;;;;;5012159;28;20299;-88
2022/10/10 02:50:12;;;;;;;;;;;7.40;99.90;;;;;;5013642;28;19920;-90
2022/10/10 02:52:37;;;;;;;;;;;7.50;99.90;;;;;;5013852;28;20006;-90
2022/10/10 02:55:03;;;;;;;;;;;7.50;99.90;;;;;;5013147;28;20395;-90
2022/10/10 02:57:29;;;;;;;;;;;7.50;99.90;;;;;;5030565;28;20384;-90
2022/10/10 02:59:54;;;;;;;;;;;8.00;99.90;;;;;;4996236;28;19921;-89
2022/10/10 03:02:20;;;;;;;;;;;7.50;99.90;;;;;;4998784;28;19924;-89
2022/10/10 03:04:45;;;;;;;;;;;8.90;99.90;;;;;;5018167;28;19968;-90
2022/10/10 03:07:11;;;;;;;;;;;8.50;99.90;;;;;;5024157;28;19921;-90
2022/10/10 03:09:37;;;;;;;;;;;8.90;99.90;;;;;;5020567;28;19927;-90
2022/10/10 03:12:02;;;;;;;;;;;7.60;99.90;;;;;;5021861;28;20410;-91
2022/10/10 03:14:28;;;;;;;;;;;7.50;99.90;;;;;;5021583;28;19921;-89
2022/10/10 03:16:53;;;;;;;;;;;7.80;99.90;;;;;;5013770;28;19920;-90
2022/10/10 03:19:19;;;;;;;;;;;8.80;99.90;;;;;;5017354;28;19925;-89
2022/10/10 03:21:45;;;;;;;;;;;8.10;99.90;;;;;;5012930;28;19927;-89
2022/10/10 03:24:10;;;;;;;;;;;8.90;99.90;;;;;;5013790;28;20299;-90
2022/10/10 03:26:36;;;;;;;;;;;8.40;99.90;;;;;;5013325;28;20374;-90
2022/10/10 03:29:02;;;;;;;;;;;9.00;99.90;;;;;;4997177;28;19921;-89
2022/10/10 03:31:28;;;;;;;;;;;7.60;99.90;;;;;;5012335;28;20006;-89
2022/10/10 03:33:53;;;;;;;;;;;7.60;99.90;;;;;;5014055;28;19921;-89
2022/10/10 03:36:20;;;;;;;;;;;7.60;99.90;;;;;;4997504;28;19920;-90
2022/10/10 03:38:45;;;;;;;;;;;7.60;99.90;;;;;;4994527;28;20012;-89
2022/10/10 03:41:11;;;;;;;;;;;8.60;99.90;;;;;;5013278;28;20511;-90
2022/10/10 03:43:37;;;;;;;;;;;8.80;99.90;;;;;;5028190;28;20015;-89
2022/10/10 03:46:02;;;;;;;;;;;8.50;99.90;;;;;;5029008;28;19921;-89
2022/10/10 03:48:28;;;;;;;;;;;8.80;99.90;;;;;;5012474;28;19928;-89
2022/10/10 03:50:53;;;;;;;;;;;8.30;99.90;;;;;;5008062;28;19928;-89
2022/10/10 03:53:19;;;;;;;;;;;7.50;99.90;;;;;;5009364;28;19971;-90
2022/10/10 03:55:44;;;;;;;;;;;7.40;99.90;;;;;;5008344;28;19921;-90
2022/10/10 03:58:10;;;;;;;;;;;7.30;99.90;;;;;;4993380;28;19921;-89
2022/10/10 04:00:36;;;;;;;;;;;8.70;99.90;;;;;;5024672;28;19928;-89
2022/10/10 04:03:05;;;;;;;;;;;8.70;99.90;;;;;;4992554;28;20280;-89
2022/10/10 04:05:34;;;;;;;;;;;8.30;99.90;;;;;;5008707;28;20326;-89
2022/10/10 04:08:00;;;;;;;;;;;7.30;99.90;;;;;;5024568;28;20405;-90
2022/10/10 04:10:26;;;;;;;;;;;7.30;99.90;;;;;;5009168;28;20083;-91
2022/10/10 04:12:51;;;;;;;;;;;7.30;99.90;;;;;;5007646;28;19921;-90
2022/10/10 04:15:17;;;;;;;;;;;7.30;99.90;;;;;;4993094;28;20349;-89
2022/10/10 04:17:42;;;;;;;;;;;8.30;99.90;;;;;;5007073;28;20357;-90
2022/10/10 04:20:08;;;;;;;;;;;7.20;99.90;;;;;;5009145;28;19925;-90
2022/10/10 04:22:34;;;;;;;;;;;7.30;99.90;;;;;;5024695;28;19921;-89
2022/10/10 04:24:59;;;;;;;;;;;7.90;99.90;;;;;;4992486;28;20369;-90
2022/10/10 04:27:25;;;;;;;;;;;7.20;99.90;;;;;;5025385;28;20462;-91
2022/10/10 04:29:50;;;;;;;;;;;8.50;99.90;;;;;;5007914;28;20469;-90
2022/10/10 04:32:16;;;;;;;;;;;7.70;99.90;;;;;;4993179;28;19921;-91
2022/10/10 04:34:42;;;;;;;;;;;8.30;99.90;;;;;;4990696;28;20319;-90
2022/10/10 04:37:07;;;;;;;;;;;7.10;99.90;;;;;;5009054;28;19921;-90
2022/10/10 04:39:33;;;;;;;;;;;7.30;99.90;;;;;;5023971;28;19968;-91
2022/10/10 04:41:58;;;;;;;;;;;7.80;99.90;;;;;;4992752;28;19967;-89
2022/10/10 04:44:24;;;;;;;;;;;7.50;99.90;;;;;;5008750;28;19966;-93
2022/10/10 04:46:49;;;;;;;;;;;8.30;99.90;;;;;;5007684;28;20276;-91
2022/10/10 04:49:15;;;;;;;;;;;8.10;99.90;;;;;;4993568;28;20054;-90
2022/10/10 04:51:41;;;;;;;;;;;8.50;99.90;;;;;;4990438;28;19921;-90
2022/10/10 04:54:06;;;;;;;;;;;8.60;99.90;;;;;;5025259;28;19921;-89
2022/10/10 04:56:32;;;;;;;;;;;7.60;99.90;;;;;;4990978;28;19924;-88
2022/10/10 04:58:57;;;;;;;;;;;6.70;99.90;;;;;;5008993;28;20447;-91
2022/10/10 05:01:23;;;;;;;;;;;7.20;99.90;;;;;;4991953;28;19921;-88
2022/10/10 05:03:48;;;;;;;;;;;8.60;99.90;;;;;;4993829;28;19921;-93
2022/10/10 05:06:14;;;;;;;;;;;7.20;99.90;;;;;;5016647;28;19921;-94
2022/10/10 05:08:41;;;;;;;;;;;7.20;99.90;;;;;;5012379;28;19928;-90
2022/10/10 05:11:08;;;;;;;;;;;8.50;99.90;;;;;;5012487;28;19921;-92
2022/10/10 05:13:33;;;;;;;;;;;7.20;99.90;;;;;;4998544;28;19921;-96
2022/10/10 05:15:59;;;;;;;;;;;8.00;99.90;;;;;;5000032;28;19928;-90
2022/10/10 05:18:25;;;;;;;;;;;7.30;99.90;;;;;;4994306;28;19928;-92
2022/10/10 05:20:51;;;;;;;;;;;7.20;99.90;;;;;;4994209;28;19921;-88
2022/10/10 05:23:17;;;;;;;;;;;7.90;99.90;;;;;;5025921;28;19921;-87
2022/10/10 05:25:49;;;;;;;;;;;7.40;99.90;;;;;;5027314;28;19943;-89
2022/10/10 05:28:15;;;;;;;;;;;7.40;99.90;;;;;;5028615;28;19938;-86
2022/10/10 05:30:41;;;;;;;;;;;7.60;99.90;;;;;;4993746;28;19947;-88
2022/10/10 05:33:08;;;;;;;;;;;8.60;99.90;;;;;;4997925;28;19928;-92
2022/10/10 05:35:34;;;;;;;;;;;7.50;99.90;;;;;;4998309;28;19921;-93
2022/10/10 05:37:59;;;;;;;;;;;8.50;99.90;;;;;;4999756;28;20007;-91
2022/10/10 05:40:25;;;;;;;;;;;8.80;99.90;;;;;;5014438;28;20381;-91
2022/10/10 05:42:51;;;;;;;;;;;7.50;99.90;;;;;;5015266;28;19955;-94
2022/10/10 05:45:16;;;;;;;;;;;8.60;99.90;;;;;;4998500;28;19921;-91
2022/10/10 05:47:42;;;;;;;;;;;7.50;99.90;;;;;;4997213;28;19957;-91
2022/10/10 05:50:12;;;;;;;;;;;8.00;99.90;;;;;;4998091;28;19947;-90
2022/10/10 05:52:38;;;;;;;;;;;7.50;99.90;;;;;;5012118;28;20011;-91
2022/10/10 05:55:04;;;;;;;;;;;7.60;99.90;;;;;;4998584;28;20011;-86
2022/10/10 05:57:29;;;;;;;;;;;7.60;99.90;;;;;;4996734;28;20003;-91
2022/10/10 05:59:55;;;;;;;;;;;7.60;99.90;;;;;;5014519;28;19967;-90
2022/10/10 06:02:20;;;;;;;;;;;8.40;99.90;;;;;;4997308;28;19928;-91
2022/10/10 06:04:46;;;;;;;;;;;8.20;99.90;;;;;;4997516;28;20380;-91
2022/10/10 06:07:12;;;;;;;;;;;7.60;99.90;;;;;;4997755;28;19984;-90
2022/10/10 06:09:37;;;;;;;;;;;7.60;99.90;;;;;;4997832;28;19921;-93
2022/10/10 06:12:03;;;;;;;;;;;9.00;99.90;;;;;;4999207;28;19929;-91
2022/10/10 06:14:28;;;;;;;;;;;8.60;99.90;;;;;;4997671;28;19928;-91
2022/10/10 06:16:54;;;;;;;;;;;9.00;99.90;;;;;;5013893;28;19975;-86
2022/10/10 06:19:20;;;;;;;;;;;9.10;99.90;;;;;;5010808;28;20587;-87
2022/10/10 06:21:47;;;;;;;;;;;8.30;99.90;;;;;;5011181;28;20430;-86
2022/10/10 06:24:13;;;;;;;;;;;7.80;99.90;;;;;;5031830;28;19921;-87
2022/10/10 06:26:38;;;;;;;;;;;7.80;99.90;;;;;;4998315;28;19975;-90
2022/10/10 06:29:04;;;;;;;;;;;9.20;99.90;;;;;;4999548;28;20027;-89
2022/10/10 06:31:29;;;;;;;;;;;8.00;99.90;;;;;;4996472;28;19978;-89
2022/10/10 06:33:55;;;;;;;;;;;8.30;99.90;;;;;;4999675;28;20015;-90
2022/10/10 06:36:21;;;;;;;;;;;8.00;99.90;;;;;;4996208;28;20402;-89
2022/10/10 06:38:46;;;;;;;;;;;7.60;99.90;;;;;;4998254;28;19928;-90
2022/10/10 06:41:12;;;;;;;;;;;8.10;99.90;;;;;;5010005;28;20335;-89
2022/10/10 06:43:37;;;;;;;;;;;8.20;99.90;;;;;;4992233;28;19979;-88
2022/10/10 06:46:03;;;;;;;;;;;9.40;99.90;;;;;;4993613;28;19921;-90
2022/10/10 06:48:30;;;;;;;;;;;8.30;99.90;;;;;;4992870;28;19976;-89
2022/10/10 06:51:00;;;;;;;;;;;8.40;99.90;;;;;;5026432;28;19932;-89
2022/10/10 06:53:26;;;;;;;;;;;8.50;99.90;;;;;;5008749;28;19943;-89
2022/10/10 06:55:55;;;;;;;;;;;8.60;99.90;;;;;;5014387;28;19929;-89
2022/10/10 06:58:21;;;;;;;;;;;8.70;99.90;;;;;;5012101;28;19921;-91
2022/10/10 07:00:50;;;;;;;;;;;9.50;99.90;;;;;;4995875;28;19947;-89
2022/10/10 07:03:16;;;;;;;;;;;8.90;99.90;;;;;;5013736;28;19921;-89
2022/10/10 07:05:42;;;;;;;;;;;9.00;99.90;;;;;;5000772;28;19966;-91
2022/10/10 07:08:08;;;;;;;;;;;9.10;99.90;;;;;;5019404;28;19921;-90
2022/10/10 07:10:34;;;;;;;;;;;9.20;99.90;;;;;;5021669;28;20064;-91
2022/10/10 07:12:59;;;;;;;;;;;9.20;99.90;;;;;;5020049;28;19937;-90
2022/10/10 07:15:25;;;;;;;;;;;9.90;99.90;;;;;;4991780;28;19921;-90
2022/10/10 07:17:57;;;;;;;;;;;9.30;99.90;;;;;;4993113;28;20016;-88
2022/10/10 07:20:23;;;;;;;;;;;9.40;99.90;;;;;;4995951;28;20032;-90
2022/10/10 07:22:49;;;;;;;;;;;9.50;99.90;;;;;;5010378;28;20384;-90
2022/10/10 07:25:15;;;;;;;;;;;9.50;99.90;;;;;;5013560;28;20011;-90
2022/10/10 07:27:41;;;;;;;;;;;9.60;99.90;;;;;;5008601;28;20035;-90
2022/10/10 07:30:06;;;;;;;;;;;9.70;99.90;;;;;;5009977;28;19921;-90
2022/10/10 07:32:32;;;;;;;;;;;9.80;99.90;;;;;;5025415;28;20257;-89
2022/10/10 07:34:57;;;;;;;;;;;9.80;99.90;;;;;;4992508;28;19928;-90
2022/10/10 07:37:23;;;;;;;;;;;9.90;99.90;;;;;;5009311;28;19991;-88
2022/10/10 07:39:51;;;;;;;;;;;9.90;99.90;;;;;;4994972;28;19921;-89
2022/10/10 07:42:17;;;;;;;;;;;9.90;99.90;;;;;;5009686;28;19921;-90
2022/10/10 07:44:43;;;;;;;;;;;11.10;99.90;;;;;;4991307;28;19999;-90
2022/10/10 07:47:08;;;;;;;;;;;10.00;99.90;;;;;;5010260;28;19921;-90
2022/10/10 07:49:34;;;;;;;;;;;9.90;99.90;;;;;;4991955;28;20391;-89
2022/10/10 07:51:59;;;;;;;;;;;9.90;99.90;;;;;;5011501;28;20008;-89
2022/10/10 07:54:25;;;;;;;;;;;9.90;99.90;;;;;;4996302;28;19921;-87
2022/10/10 07:56:50;;;;;;;;;;;9.90;99.90;;;;;;5015988;28;19921;-87
2022/10/10 07:59:16;;;;;;;;;;;10.70;99.90;;;;;;5018430;28;19929;-87
2022/10/10 08:01:41;;;;;;;;;;;10.70;99.90;;;;;;5011266;28;20380;-87
2022/10/10 08:04:07;;;;;;;;;;;10.00;99.90;;;;;;5030209;28;19921;-87
2022/10/10 08:06:33;;;;;;;;;;;10.20;99.90;;;;;;5028920;28;19928;-87
2022/10/10 08:08:58;;;;;;;;;;;10.40;99.90;;;;;;5027868;28;19917;-87
2022/10/10 08:11:24;;;;;;;;;;;11.10;99.90;;;;;;5050129;28;19925;-87
2022/10/10 08:13:50;;;;;;;;;;;10.80;99.90;;;;;;5033095;28;19929;-87
2022/10/10 08:16:16;;;;;;;;;;;10.50;99.90;;;;;;5034252;28;19917;-87
2022/10/10 08:18:42;;;;;;;;;;;11.80;99.90;;;;;;5032452;28;19943;-87
2022/10/10 08:21:09;;;;;;;;;;;10.60;99.90;;;;;;5032441;28;19952;-88
2022/10/10 08:23:34;;;;;;;;;;;11.90;99.90;;;;;;5046842;28;19984;-88
2022/10/10 08:26:01;;;;;;;;;;;10.70;99.90;;;;;;5008356;28;19925;-87
2022/10/10 08:28:27;;;;;;;;;;;10.90;99.90;;;;;;5027824;28;19960;-87
2022/10/10 08:30:53;;;;;;;;;;;11.20;99.90;;;;;;5024455;28;19960;-87
2022/10/10 08:33:18;;;;;;;;;;;12.60;99.90;;;;;;5025617;28;19921;-87
2022/10/10 08:35:44;;;;;;;;;;;11.90;99.90;;;;;;5024887;28;19928;-88
2022/10/10 08:38:09;;;;;;;;;;;12.30;99.90;;;;;;5009581;28;19932;-90
2022/10/10 08:40:46;;;;;;;;;;;12.00;99.90;;;;;;4991431;28;20011;-86
2022/10/10 08:43:17;;;;;;;;;;;12.00;99.90;;;;;;5025138;28;19921;-87
2022/10/10 08:45:42;;;;;;;;;;;12.70;99.90;;;;;;5008388;28;19971;-88
2022/10/10 08:48:13;;;;;;;;;;;12.20;99.90;;;;;;5007487;28;19921;-87
2022/10/10 08:50:42;;;;;;;;;;;12.30;99.90;;;;;;5010957;28;20684;-88
2022/10/10 08:53:28;;;;;;;;;;;12.30;99.90;;;;;;5030229;28;19921;-88
2022/10/10 08:55:54;;;;;;;;;;;12.40;99.90;;;;;;5035302;28;19916;-88
2022/10/10 08:58:22;;;;;;;;;;;12.50;99.90;;;;;;5000095;28;19920;-88
2022/10/10 09:00:57;;;;;;;;;;;13.20;99.90;;;;;;5036549;28;19920;-89
2022/10/10 09:03:27;;;;;;;;;;;12.70;99.90;;;;;;5013209;28;19921;-88
2022/10/10 09:05:58;;;;;;;;;;;12.80;99.90;;;;;;5014693;28;19984;-88
2022/10/10 09:08:47;;;;;;;;;;;12.80;99.90;;;;;;5021590;28;20356;-88
2022/10/10 09:11:12;;;;;;;;;;;12.90;99.90;;;;;;4987615;28;19963;-88
2022/10/10 09:13:41;;;;;;;;;;;13.00;99.90;;;;;;5014990;28;19921;-89
2022/10/10 09:16:19;;;;;;;;;;;13.10;99.90;;;;;;5015278;28;20447;-89
2022/10/10 09:18:51;;;;;;;;;;;13.10;99.90;;;;;;5014047;28;20000;-89
2022/10/10 09:21:19;;;;;;;;;;;13.30;99.90;;;;;;5016145;28;19921;-89
2022/10/10 09:23:57;;;;;;;;;;;13.40;99.90;;;;;;5030622;28;20405;-89
2022/10/10 09:26:38;;;;;;;;;;;13.30;99.90;;;;;;5014848;28;19968;-89
2022/10/10 09:29:18;;;;;;;;;;;13.40;99.90;;;;;;5032534;28;19924;-88
2022/10/10 09:31:48;;;;;;;;;;;13.40;99.90;;;;;;5030891;28;20498;-88
2022/10/10 09:34:19;;;;;;;;;;;13.90;99.90;;;;;;5016014;28;19927;-88
2022/10/10 09:36:46;;;;;;;;;;;13.50;99.90;;;;;;5031121;28;20023;-89
2022/10/10 09:39:16;;;;;;;;;;;13.50;99.90;;;;;;5015580;28;19975;-89
2022/10/10 09:41:49;;;;;;;;;;;13.50;99.90;;;;;;5016385;28;19921;-89
2022/10/10 09:44:16;;;;;;;;;;;13.50;99.90;;;;;;5030599;28;19928;-87
2022/10/10 09:46:42;;;;;;;;;;;14.00;99.90;;;;;;5016241;28;19970;-89
2022/10/10 09:49:10;;;;;;;;;;;13.40;99.90;;;;;;4998225;28;19921;-88
2022/10/10 09:51:36;;;;;;;;;;;14.00;99.90;;;;;;5016261;28;20288;-89
2022/10/10 09:54:03;;;;;;;;;;;13.70;99.90;;;;;;4999079;28;19928;-90
2022/10/10 09:56:30;;;;;;;;;;;13.70;99.90;;;;;;5015893;28;19990;-88
2022/10/10 09:58:56;;;;;;;;;;;13.70;99.90;;;;;;5015641;28;19972;-88
2022/10/10 10:01:23;;;;;;;;;;;14.10;99.90;;;;;;5015108;28;19947;-88
2022/10/10 10:04:07;;;;;;;;;;;13.90;99.90;;;;;;5016924;28;19964;-89
2022/10/10 10:06:33;;;;;;;;;;;14.00;99.90;;;;;;5014900;28;19921;-88
2022/10/10 10:09:03;;;;;;;;;;;14.20;99.90;;;;;;5015724;28;19927;-88
2022/10/10 10:11:34;;;;;;;;;;;14.30;99.90;;;;;;5034884;28;20015;-90
2022/10/10 10:14:01;;;;;;;;;;;14.50;99.90;;;;;;5017019;28;19929;-89
2022/10/10 10:16:30;;;;;;;;;;;14.60;99.90;;;;;;5002778;28;20032;-88
2022/10/10 10:18:55;;;;;;;;;;;14.60;99.90;;;;;;5015792;28;19927;-89
2022/10/10 10:21:24;;;;;;;;;;;14.70;99.90;;;;;;5000762;28;20015;-90
2022/10/10 10:23:52;;;;;;;;;;;14.80;99.90;;;;;;5016819;28;20043;-89
2022/10/10 10:26:29;;;;;;;;;;;14.90;99.90;;;;;;5017865;28;20742;-90
2022/10/10 10:28:56;;;;;;;;;;;14.90;99.90;;;;;;5020469;28;19921;-92
2022/10/10 10:31:44;;;;;;;;;;;15.00;99.90;;;;;;5035537;28;20010;-92
2022/10/10 10:34:36;;;;;;;;;;;14.90;99.90;;;;;;5035724;28;19920;-92
2022/10/10 10:37:11;;;;;;;;;;;14.90;99.90;;;;;;5005716;28;19967;-93
2022/10/10 10:39:43;;;;;;;;;;;14.90;99.90;;;;;;5020856;28;19921;-94
2022/10/10 10:42:10;;;;;;;;;;;14.90;99.90;;;;;;5038252;28;20315;-92
2022/10/10 10:44:39;;;;;;;;;;;15.00;99.90;;;;;;5020009;28;19920;-93
2022/10/10 10:47:21;;;;;;;;;;;15.10;99.90;;;;;;5021161;28;20007;-94
2022/10/10 10:50:05;;;;;;;;;;;15.20;99.90;;;;;;5020901;28;19920;-92
2022/10/10 10:52:31;;;;;;;;;;;15.40;99.90;;;;;;5020245;28;20007;-92
2022/10/10 10:55:29;;;;;;;;;;;15.60;99.90;;;;;;5021339;28;19964;-93
2022/10/10 10:58:14;;;;;;;;;;;15.80;99.90;;;;;;5003837;28;19921;-93
2022/10/10 11:00:57;;;;;;;;;;;15.90;99.90;;;;;;5020976;28;19972;-93
2022/10/10 11:03:35;;;;;;;;;;;15.90;99.90;;;;;;5018981;28;19920;-93
2022/10/10 11:06:06;;;;;;;;;;;16.00;99.90;;;;;;5017072;28;19920;-93
2022/10/10 11:08:32;;;;;;;;;;;16.10;99.90;;;;;;5017479;28;20039;-94
2022/10/10 11:11:16;;;;;;;;;;;16.10;99.90;;;;;;5017541;28;19921;-93
2022/10/10 11:14:15;;;;;;;;;;;16.20;99.90;;;;;;5022396;28;19920;-92
2022/10/10 11:16:46;;;;;;;;;;;16.10;99.90;;;;;;4987052;28;20403;-93
2022/10/10 11:19:35;;;;;;;;;;;16.00;99.90;;;;;;5021965;28;19986;-92
2022/10/10 11:22:04;;;;;;;;;;;15.90;99.90;;;;;;4990555;28;19951;-92
2022/10/10 11:24:42;;;;;;;;;;;15.80;99.90;;;;;;5017938;28;20406;-91
2022/10/10 11:27:13;;;;;;;;;;;15.70;99.90;;;;;;5018536;28;19928;-92
2022/10/10 11:29:52;;;;;;;;;;;15.60;99.90;;;;;;5017342;28;20365;-91
2022/10/10 11:32:23;;;;;;;;;;;15.60;99.90;;;;;;5017080;28;19920;-92
2022/10/10 11:34:52;;;;;;;;;;;15.50;99.90;;;;;;5016608;28;19921;-92
2022/10/10 11:37:21;;;;;;;;;;;15.40;99.90;;;;;;5016041;28;20007;-88
2022/10/10 11:39:53;;;;;;;;;;;15.30;99.90;;;;;;5015597;28;20331;-92
2022/10/10 11:42:34;;;;;;;;;;;15.20;99.90;;;;;;5015983;28;19920;-92
2022/10/10 11:45:11;;;;;;;;;;;15.10;99.90;;;;;;5015183;28;19925;-91
2022/10/10 11:47:39;;;;;;;;;;;15.00;99.90;;;;;;5013387;28;19921;-92
2022/10/10 11:50:05;;;;;;;;;;;14.90;99.90;;;;;;5014823;28;19920;-92
2022/10/10 11:52:49;;;;;;;;;;;14.80;99.90;;;;;;5013583;28;19922;-91
2022/10/10 11:55:19;;;;;;;;;;;14.90;99.90;;;;;;5017027;28;19920;-93
2022/10/10 11:57:50;;;;;;;;;;;14.80;99.90;;;;;;5015259;28;20556;-92
2022/10/10 12:00:16;;;;;;;;;;;14.80;99.90;;;;;;5016122;28;19920;-91
2022/10/10 12:02:43;;;;;;;;;;;14.90;99.90;;;;;;4998913;28;19927;-92
2022/10/10 12:05:22;;;;;;;;;;;14.90;99.90;;;;;;5015023;28;19920;-92
2022/10/10 12:07:57;;;;;;;;;;;14.80;99.90;;;;;;5015269;28;19921;-93
2022/10/10 12:10:29;;;;;;;;;;;14.80;99.90;;;;;;5012722;28;19927;-94
2022/10/10 12:12:57;;;;;;;;;;;15.80;99.90;;;;;;5014252;28;19928;-91
2022/10/10 12:15:32;;;;;;;;;;;14.80;99.90;;;;;;5011743;28;20062;-90
2022/10/10 12:17:57;;;;;;;;;;;14.80;99.90;;;;;;5010699;28;19928;-90
2022/10/10 12:20:26;;;;;;;;;;;14.80;99.90;;;;;;4996839;28;19921;-90
2022/10/10 12:23:24;;;;;;;;;;;14.80;99.90;;;;;;5009964;28;19935;-91
2022/10/10 12:25:50;;;;;;;;;;;14.10;99.90;;;;;;4978441;28;19921;-91
2022/10/10 12:28:15;;;;;;;;;;;14.90;99.90;;;;;;4994725;28;19920;-90
2022/10/10 12:30:53;;;;;;;;;;;14.90;99.90;;;;;;5010247;28;19928;-89
2022/10/10 12:33:25;;;;;;;;;;;14.90;99.90;;;;;;5011925;28;19943;-90
2022/10/10 12:35:52;;;;;;;;;;;14.90;99.90;;;;;;5009189;28;19925;-90
2022/10/10 12:38:19;;;;;;;;;;;14.90;99.90;;;;;;5011557;28;19927;-89
2022/10/10 12:41:04;;;;;;;;;;;16.00;99.90;;;;;;5009083;28;19927;-89
2022/10/10 12:44:03;;;;;;;;;;;14.80;99.90;;;;;;5010572;28;20384;-90
2022/10/10 12:46:29;;;;;;;;;;;14.70;99.90;;;;;;4979698;28;19935;-90
2022/10/10 12:48:57;;;;;;;;;;;14.70;99.90;;;;;;5009464;28;19921;-90
2022/10/10 12:51:23;;;;;;;;;;;15.60;99.90;;;;;;4972473;28;1126105;-89
2022/10/10 12:53:51;;;;;;;;;;;14.50;99.90;;;;;;4996121;28;19920;-88
2022/10/10 12:56:29;;;;;;;;;;;14.50;99.90;;;;;;5012143;28;19927;-89
2022/10/10 12:58:55;;;;;;;;;;;14.40;99.90;;;;;;5012310;28;19921;-88
2022/10/10 13:01:25;;;;;;;;;;;15.00;99.90;;;;;;4993926;28;20366;-89
2022/10/10 13:03:52;;;;;;;;;;;14.30;99.90;;;;;;5012189;28;19975;-88
2022/10/10 13:06:44;;;;;;;;;;;14.30;99.90;;;;;;5027390;28;19921;-88
2022/10/10 13:09:14;;;;;;;;;;;14.30;99.90;;;;;;4995142;28;19921;-88
2022/10/10 13:11:53;;;;;;;;;;;14.20;99.90;;;;;;5012037;28;19921;-88
2022/10/10 13:14:19;;;;;;;;;;;14.20;99.90;;;;;;5009707;28;19920;-88
2022/10/10 13:16:44;;;;;;;;;;;14.10;99.90;;;;;;4995328;28;19927;-88
2022/10/10 13:19:18;;;;;;;;;;;14.10;99.90;;;;;;5010519;28;19947;-88
2022/10/10 13:21:44;;;;;;;;;;;14.10;99.90;;;;;;5027272;28;19971;-88
2022/10/10 13:24:13;;;;;;;;;;;14.70;99.90;;;;;;5010937;28;19920;-88
2022/10/10 13:26:43;;;;;;;;;;;14.10;99.90;;;;;;5026648;28;20404;-87
2022/10/10 13:29:35;;;;;;;;;;;14.00;99.90;;;;;;5011656;28;19921;-88
2022/10/10 13:32:03;;;;;;;;;;;14.00;99.90;;;;;;5006356;28;19932;-88
2022/10/10 13:34:31;;;;;;;;;;;14.00;99.90;;;;;;5010613;28;20364;-87
2022/10/10 13:36:58;;;;;;;;;;;14.00;99.90;;;;;;5011228;28;19947;-94
2022/10/10 13:39:24;;;;;;;;;;;13.90;99.90;;;;;;5011083;28;19920;-93
2022/10/10 13:41:51;;;;;;;;;;;13.80;99.90;;;;;;4995398;28;20653;-89
2022/10/10 13:44:21;;;;;;;;;;;14.90;99.90;;;;;;5011164;28;19964;-89
2022/10/10 13:46:47;;;;;;;;;;;13.70;99.90;;;;;;5029736;28;20354;-90
2022/10/10 13:49:20;;;;;;;;;;;13.60;99.90;;;;;;4995055;28;19921;-87
2022/10/10 13:51:46;;;;;;;;;;;13.60;99.90;;;;;;5011916;28;20078;-88
2022/10/10 13:54:31;;;;;;;;;;;13.50;99.90;;;;;;5015980;28;19921;-88
2022/10/10 13:57:00;;;;;;;;;;;14.60;99.90;;;;;;5013820;28;19921;-88
2022/10/10 13:59:26;;;;;;;;;;;13.30;99.90;;;;;;5015182;28;19921;-88
2022/10/10 14:01:57;;;;;;;;;;;13.20;99.90;;;;;;5012828;28;20359;-87
2022/10/10 14:04:24;;;;;;;;;;;13.60;99.90;;;;;;5030933;28;19927;-87
2022/10/10 14:06:55;;;;;;;;;;;13.00;99.90;;;;;;5013622;28;19921;-87
2022/10/10 14:09:37;;;;;;;;;;;13.00;99.90;;;;;;5013078;28;19924;-85
2022/10/10 14:12:04;;;;;;;;;;;12.90;99.90;;;;;;5030725;28;19920;-85
2022/10/10 14:14:39;;;;;;;;;;;12.90;99.90;;;;;;5012043;28;20406;-85
2022/10/10 14:17:05;;;;;;;;;;;12.80;99.90;;;;;;5030264;28;20000;-85
2022/10/10 14:19:31;;;;;;;;;;;12.80;99.90;;;;;;5013020;28;19959;-85
2022/10/10 14:21:57;;;;;;;;;;;12.70;99.90;;;;;;5029666;28;19921;-85
2022/10/10 14:24:24;;;;;;;;;;;12.70;99.90;;;;;;5014060;28;20316;-86
2022/10/10 14:26:49;;;;;;;;;;;12.70;99.90;;;;;;5013032;28;19920;-86
2022/10/10 14:29:16;;;;;;;;;;;12.60;99.90;;;;;;5014132;28;20372;-85
2022/10/10 14:31:42;;;;;;;;;;;12.70;99.90;;;;;;5028657;28;20303;-85
2022/10/10 14:34:08;;;;;;;;;;;12.70;99.90;;;;;;5014382;28;19963;-85